Terminal Aerodrome Forecast
Issued by NWS Goodland, KS

Home | Current Version | Previous Version | Text Only | Print | Product List | Glossary On
Versions: 1 2 3 4 5 6 7 8 9 10 11 12
282
FTUS43 KGLD 061721
TAFGLD
TAF
KGLD 061721Z 0618/0718 26013G18KT P6SM SCT300
     FM070000 24009KT P6SM SCT250
     FM070500 28010KT P6SM FEW250 WS020/33035KT
     FM070700 30012G17KT P6SM FEW250
     FM071500 32014G24KT P6SM SCT200=

USA.gov is the U.S. government's official web portal to all federal, state and local government web resources and services.